Time;durP1;ratioP1;P1;durP2;ratioP2;P2;SDS_P1;SDS_P2;PMS_P1;PMS_P2;Temp;Humidity;BMP_temperature;BMP_pressure;BME280_temperature;BME280_humidity;BME280_pressure;Samples;Min_cycle;Max_cycle;Signal;HPM_P1;HPM_P2
2021/07/27 00:05:05;;;;;;;7.90;7.10;;;;;;;21.69;57.21;99363.28;6098439;23;20066;-88
2021/07/27 00:07:39;;;;;;;7.53;6.72;;;;;;;21.64;58.18;99362.94;6073115;23;20077;-88
2021/07/27 00:10:07;;;;;;;10.60;8.02;;;;;;;21.65;57.68;99358.44;6096676;23;20069;-88
2021/07/27 00:12:34;;;;;;;8.93;7.55;;;;;;;21.61;57.89;99350.72;6073602;23;20050;-88
2021/07/27 00:15:08;;;;;;;8.63;7.60;;;;;;;21.55;58.70;99354.09;6096413;23;20019;-88
2021/07/27 00:17:35;;;;;;;8.70;7.78;;;;;;;21.55;58.02;99353.25;6073479;23;20414;-88
2021/07/27 00:20:02;;;;;;;11.15;9.60;;;;;;;21.50;58.29;99343.06;6073577;23;20022;-88
2021/07/27 00:26:16;;;;;;;10.38;9.18;;;;;;;21.40;58.17;99353.94;6098242;23;20107;-88
2021/07/27 00:28:43;;;;;;;10.63;9.55;;;;;;;21.33;58.39;99353.78;6073057;23;20026;-88
2021/07/27 00:31:18;;;;;;;10.95;9.65;;;;;;;21.27;59.72;99353.63;6072853;23;20110;-88
2021/07/27 00:37:17;;;;;;;11.35;9.82;;;;;;;21.19;58.96;99352.59;6099137;23;20074;-88
2021/07/27 00:39:44;;;;;;;10.57;9.45;;;;;;;21.15;59.17;99353.94;6072722;23;20036;-88
2021/07/27 00:42:14;;;;;;;11.52;9.60;;;;;;;21.11;59.23;99346.44;6097911;23;20101;-88
2021/07/27 00:44:58;;;;;;;11.70;10.10;;;;;;;21.04;60.52;99356.97;6072594;23;20042;-88
2021/07/27 00:47:25;;;;;;;11.38;9.82;;;;;;;21.07;59.51;99353.94;6072650;23;20025;-88
2021/07/27 00:50:23;;;;;;;12.50;10.30;;;;;;;21.01;60.94;99358.09;6073127;23;20030;-88
2021/07/27 00:53:05;;;;;;;12.85;9.80;;;;;;;21.01;60.55;99341.22;6072989;23;20099;-89
2021/07/27 00:55:33;;;;;;;13.75;10.70;;;;;;;21.04;60.11;99332.88;6073003;23;20046;-89
2021/07/27 00:58:34;;;;;;;12.52;10.65;;;;;;;20.98;61.14;99342.41;6072563;23;20117;-90
2021/07/27 01:01:01;;;;;;;12.82;11.30;;;;;;;21.01;59.91;99341.22;6072760;23;20089;-89
2021/07/27 01:04:18;;;;;;;14.55;11.18;;;;;;;20.94;61.00;99344.56;6072719;23;20037;-89
2021/07/27 01:06:45;;;;;;;14.05;11.63;;;;;;;20.96;59.76;99339.88;6072105;23;20074;-89
2021/07/27 01:09:23;;;;;;;15.40;11.95;;;;;;;20.90;61.44;99345.88;6072682;23;20026;-89
2021/07/27 01:11:50;;;;;;;12.65;11.23;;;;;;;20.92;60.15;99343.03;6072893;23;20026;-88
2021/07/27 01:14:31;;;;;;;14.80;12.13;;;;;;;20.87;61.87;99348.91;6072475;23;20110;-89
2021/07/27 01:16:58;;;;;;;15.95;13.45;;;;;;;20.91;60.46;99344.91;6072642;23;20018;-89
2021/07/27 01:19:54;;;;;;;14.68;13.05;;;;;;;20.86;61.51;99339.16;6097672;23;20033;-90
2021/07/27 01:40:27;;;;;;;18.23;14.70;;;;;;;20.91;61.29;99330.69;6009356;23;20021;-89
2021/07/27 01:42:54;;;;;;;18.08;15.00;;;;;;;20.92;60.75;99337.69;5985979;23;20547;-89
2021/07/27 01:45:23;;;;;;;15.40;13.32;;;;;;;20.90;61.64;99334.38;5986097;23;20051;-89
2021/07/27 01:47:49;;;;;;;16.45;14.68;;;;;;;20.89;61.33;99332.69;5986023;23;20074;-88
2021/07/27 01:50:31;;;;;;;17.20;15.00;;;;;;;20.85;62.23;99337.50;5985752;23;20032;-89
2021/07/27 01:53:26;;;;;;;15.13;13.52;;;;;;;20.87;62.20;99340.00;5985966;23;20069;-89
2021/07/27 01:55:56;;;;;;;21.05;15.43;;;;;;;20.90;62.20;99337.84;5985851;23;20023;-89
2021/07/27 01:58:22;;;;;;;21.38;14.55;;;;;;;20.90;61.41;99337.84;5985986;23;20148;-89
2021/07/27 02:01:19;;;;;;;18.33;15.95;;;;;;;20.85;63.23;99336.69;5985844;23;20820;-89
2021/07/27 02:03:46;;;;;;;19.35;17.02;;;;;;;20.89;61.63;99341.53;5985795;23;20460;-84
2021/07/27 02:06:15;;;;;;;20.33;15.75;;;;;;;20.87;62.33;99345.34;6058285;23;20025;-84
2021/07/27 02:08:42;;;;;;;20.35;16.48;;;;;;;20.87;61.81;99340.88;6072345;23;20105;-84
2021/07/27 02:11:27;;;;;;;16.98;15.00;;;;;;;20.82;63.32;99337.84;6071830;23;20061;-83
2021/07/27 02:13:55;;;;;;;17.90;15.52;;;;;;;20.86;61.91;99346.38;6072230;23;20488;-84
2021/07/27 02:16:30;;;;;;;20.67;16.70;;;;;;;20.82;63.25;99344.00;6072286;23;20019;-84
2021/07/27 02:18:58;;;;;;;19.17;16.63;;;;;;;20.86;62.16;99349.03;6072170;23;20105;-84
2021/07/27 02:21:40;;;;;;;19.55;16.75;;;;;;;20.80;63.42;99346.03;6071918;23;20018;-84
2021/07/27 02:24:07;;;;;;;20.60;16.45;;;;;;;20.85;62.35;99353.53;6072161;23;20056;-84
2021/07/27 02:26:34;;;;;;;21.13;16.52;;;;;;;20.83;62.54;99344.84;6071958;23;20025;-83
2021/07/27 02:29:01;;;;;;;18.17;15.88;;;;;;;20.83;62.74;99348.34;6072015;23;20460;-84
2021/07/27 02:32:11;;;;;;;23.25;16.67;;;;;;;20.81;63.69;99346.84;6069338;23;20458;-84
2021/07/27 02:34:51;;;;;;;21.65;16.27;;;;;;;20.88;62.32;99350.56;6075451;23;20018;-83
2021/07/27 02:37:39;;;;;;;20.13;15.57;;;;;;;20.84;63.58;99346.53;6073921;23;20105;-83
2021/07/27 02:40:07;;;;;;;20.60;16.30;;;;;;;20.90;62.58;99340.53;6073784;23;20097;-83
2021/07/27 02:42:35;;;;;;;19.52;14.85;;;;;;;20.89;62.97;99344.22;6073700;23;20093;-83
2021/07/27 02:45:41;;;;;;;20.48;14.25;;;;;;;20.86;63.68;99343.69;6074148;23;20108;-83
2021/07/27 02:48:09;;;;;;;18.40;14.38;;;;;;;20.92;62.80;99356.41;6070804;23;20042;-83
2021/07/27 02:50:36;;;;;;;19.85;15.98;;;;;;;20.92;62.48;99354.59;6073146;23;20064;-83
2021/07/27 02:53:31;;;;;;;18.30;14.88;;;;;;;20.88;63.45;99339.88;6074057;23;20054;-83
2021/07/27 02:55:58;;;;;;;20.38;14.60;;;;;;;20.96;62.74;99341.72;6073944;23;20058;-83
2021/07/27 02:58:25;;;;;;;20.30;16.15;;;;;;;20.97;62.76;99335.34;6073684;23;20109;-83
2021/07/27 03:00:53;;;;;;;21.63;14.55;;;;;;;21.00;62.84;99342.25;6074109;23;20057;-83
2021/07/27 03:03:20;;;;;;;19.08;15.05;;;;;;;21.03;62.76;99333.84;6074157;23;20061;-84
2021/07/27 03:05:47;;;;;;;19.80;15.65;;;;;;;21.05;62.66;99332.69;6073854;23;20489;-83
2021/07/27 03:08:21;;;;;;;19.27;15.73;;;;;;;21.06;62.73;99333.53;6073371;23;20030;-83
2021/07/27 03:11:08;;;;;;;21.25;16.83;;;;;;;21.03;63.22;99339.22;5959373;24;20440;-83
2021/07/27 03:13:34;;;;;;;21.95;15.63;;;;;;;21.05;62.52;99334.53;5959287;24;20503;-83
2021/07/27 03:16:22;;;;;;;23.35;16.15;;;;;;;21.00;63.76;99337.72;5959531;24;20057;-83
2021/07/27 03:18:51;;;;;;;20.35;16.27;;;;;;;21.03;62.74;99345.41;5959401;24;20044;-83
2021/07/27 03:21:26;;;;;;;21.77;16.40;;;;;;;20.99;63.63;99340.53;5959237;24;20024;-84
2021/07/27 03:23:54;;;;;;;21.60;16.83;;;;;;;21.00;63.02;99334.22;5959131;24;20103;-83
2021/07/27 03:26:22;;;;;;;26.98;17.25;;;;;;;20.96;63.14;99345.25;5982774;24;20020;-83
2021/07/27 03:28:50;;;;;;;21.95;17.45;;;;;;;20.94;62.94;99331.19;6010365;23;20018;-83
2021/07/27 03:31:19;;;;;;;21.48;17.05;;;;;;;20.92;63.29;99340.38;6073891;23;20105;-83
2021/07/27 03:33:46;;;;;;;23.02;17.10;;;;;;;20.91;63.15;99336.88;6073126;23;20093;-83
2021/07/27 03:36:26;;;;;;;25.55;17.00;;;;;;;20.86;64.09;99336.47;6073571;23;20093;-84
2021/07/27 03:38:55;;;;;;;21.75;16.83;;;;;;;20.89;63.24;99330.03;6073353;23;20060;-84
2021/07/27 03:41:24;;;;;;;22.05;16.85;;;;;;;20.88;63.44;99336.34;6073329;23;20058;-85
2021/07/27 03:43:51;;;;;;;23.63;16.98;;;;;;;20.88;63.25;99331.84;6073567;23;20510;-84
2021/07/27 03:46:40;;;;;;;20.92;17.25;;;;;;;20.82;64.22;99335.16;6073657;23;20037;-84
2021/07/27 03:49:07;;;;;;;21.67;16.30;;;;;;;20.85;63.53;99334.81;6073421;23;20023;-84
2021/07/27 03:52:00;;;;;;;20.58;16.98;;;;;;;20.80;64.79;99329.97;6073358;23;20022;-84
2021/07/27 03:54:32;;;;;;;26.75;16.20;;;;;;;20.86;63.57;99333.00;6073627;23;20337;-85
2021/07/27 03:57:09;;;;;;;23.15;17.25;;;;;;;20.82;64.71;99343.19;6073209;23;20022;-84
2021/07/27 03:59:35;;;;;;;24.23;18.30;;;;;;;20.84;63.71;99341.16;6073617;23;20112;-84
2021/07/27 04:02:17;;;;;;;25.98;18.17;;;;;;;20.79;64.72;99338.16;6073222;23;20395;-84
2021/07/27 04:04:47;;;;;;;24.85;19.23;;;;;;;20.81;64.31;99338.81;6073154;23;20073;-84
2021/07/27 04:07:21;;;;;;;25.13;18.20;;;;;;;20.80;64.59;99340.69;6073118;23;20053;-84
2021/07/27 04:09:49;;;;;;;23.70;17.60;;;;;;;20.83;63.98;99345.69;6073861;23;20054;-85
2021/07/27 04:12:28;;;;;;;23.70;18.88;;;;;;;20.82;64.92;99353.91;6073167;23;20114;-84
2021/07/27 04:14:54;;;;;;;27.58;20.52;;;;;;;20.88;64.17;99341.69;6072942;23;20137;-85
2021/07/27 04:17:45;;;;;;;26.23;20.52;;;;;;;20.86;64.77;99349.03;6073264;23;20486;-85
2021/07/27 04:20:12;;;;;;;28.95;20.48;;;;;;;20.92;64.14;99348.41;6073315;23;20407;-84
2021/07/27 04:22:55;;;;;;;29.25;20.77;;;;;;;20.88;64.84;99339.88;6073253;23;20058;-84
2021/07/27 04:25:21;;;;;;;27.02;19.95;;;;;;;20.95;63.91;99343.56;6073230;23;20097;-84
2021/07/27 04:28:04;;;;;;;28.60;21.35;;;;;;;20.91;64.97;99344.91;6072980;23;20113;-84
2021/07/27 04:30:39;;;;;;;27.63;19.55;;;;;;;20.92;64.66;99346.56;6098163;23;20101;-84
2021/07/27 04:33:06;;;;;;;26.20;19.52;;;;;;;20.94;63.83;99344.56;6072924;23;20029;-84
2021/07/27 04:35:33;;;;;;;27.88;20.35;;;;;;;20.94;64.01;99352.56;6072783;23;20018;-84
2021/07/27 04:38:23;;;;;;;29.75;21.70;;;;;;;20.89;64.73;99354.09;6073113;23;20405;-84
2021/07/27 04:40:57;;;;;;;31.70;20.30;;;;;;;20.90;64.93;99359.25;6072323;23;20097;-84
2021/07/27 04:43:26;;;;;;;29.60;21.67;;;;;;;20.93;64.22;99364.28;6072722;23;20097;-84
2021/07/27 04:45:52;;;;;;;34.35;22.00;;;;;;;20.95;64.25;99358.78;6072751;23;20403;-84
2021/07/27 04:48:39;;;;;;;30.10;20.35;;;;;;;20.90;64.72;99361.13;6072528;23;20027;-84
2021/07/27 04:51:06;;;;;;;28.58;21.85;;;;;;;20.93;63.99;99366.16;6072715;23;20098;-84
2021/07/27 04:53:58;;;;;;;32.25;22.70;;;;;;;20.89;65.10;99365.63;6073083;23;20023;-85
2021/07/27 04:56:25;;;;;;;31.15;22.10;;;;;;;20.93;64.02;99372.31;6072345;23;20023;-84
2021/07/27 04:59:02;;;;;;;30.35;22.92;;;;;;;20.89;65.03;99372.81;6073066;23;20393;-84
2021/07/27 05:01:29;;;;;;;31.95;23.50;;;;;;;20.91;64.22;99373.47;6073110;23;20404;-84
2021/07/27 05:04:11;;;;;;;34.00;24.40;;;;;;;20.85;64.92;99374.94;6097610;23;20038;-84
2021/07/27 05:06:38;;;;;;;32.70;23.73;;;;;;;20.89;64.54;99370.97;6072651;23;20105;-85
2021/07/27 05:09:05;;;;;;;36.83;26.50;;;;;;;20.88;64.32;99377.31;6072438;23;20105;-84
2021/07/27 05:11:32;;;;;;;32.67;24.15;;;;;;;20.87;64.44;99378.34;6097732;23;20066;-84
2021/07/27 05:14:11;;;;;;;32.15;24.58;;;;;;;20.80;65.49;99372.78;6073064;23;20031;-84
2021/07/27 05:16:38;;;;;;;35.03;24.17;;;;;;;20.85;64.58;99374.13;6097575;23;20029;-84
2021/07/27 05:22:29;;;;;;;33.80;23.65;;;;;;;20.85;64.56;99377.63;6097819;23;20109;-84
2021/07/27 05:28:12;;;;;;;36.72;24.85;;;;;;;20.89;64.46;99373.66;6097361;23;20029;-84
2021/07/27 05:30:44;;;;;;;38.10;26.15;;;;;;;20.89;65.25;99373.66;6072502;23;20098;-84
2021/07/27 05:33:54;;;;;;;36.95;25.65;;;;;;;20.89;65.12;99376.31;6072537;23;20409;-84
2021/07/27 05:36:24;;;;;;;37.50;25.40;;;;;;;20.96;64.68;99377.34;6073199;23;20480;-84
2021/07/27 05:38:59;;;;;;;36.83;25.30;;;;;;;20.95;65.05;99375.69;6072343;23;20018;-84
2021/07/27 05:41:25;;;;;;;37.97;26.75;;;;;;;21.01;64.41;99376.00;6072123;23;20022;-86
2021/07/27 05:43:58;;;;;;;32.10;24.77;;;;;;;20.99;65.36;99378.00;6097276;23;20022;-86
2021/07/27 05:46:25;;;;;;;36.42;26.40;;;;;;;21.04;64.65;99373.03;6072286;23;20097;-86
2021/07/27 05:48:53;;;;;;;35.92;26.25;;;;;;;21.05;64.56;99372.81;6072285;23;20030;-85
2021/07/27 05:51:54;;;;;;;35.00;26.55;;;;;;;21.04;65.41;99376.50;6072028;23;20018;-85
2021/07/27 05:54:23;;;;;;;37.08;26.35;;;;;;;21.13;64.40;99376.53;6072527;23;20074;-86
2021/07/27 05:56:52;;;;;;;39.95;28.23;;;;;;;21.14;64.78;99380.88;6071911;23;20077;-86
2021/07/27 05:59:20;;;;;;;39.05;27.63;;;;;;;21.16;64.40;99378.88;6072552;23;20022;-86
2021/07/27 06:01:52;;;;;;;36.13;27.30;;;;;;;21.16;64.73;99376.19;6072521;23;20131;-85
2021/07/27 06:04:19;;;;;;;33.80;26.50;;;;;;;21.19;64.40;99382.03;6071919;23;20018;-85
2021/07/27 06:07:04;;;;;;;35.70;27.00;;;;;;;21.17;64.69;99385.91;6072397;23;20409;-86
2021/07/27 06:09:30;;;;;;;37.35;26.60;;;;;;;21.22;64.04;99375.53;6072063;23;20023;-85
2021/07/27 06:12:22;;;;;;;38.95;26.38;;;;;;;21.20;64.43;99393.59;6072497;23;20405;-85
2021/07/27 06:14:49;;;;;;;37.20;27.67;;;;;;;21.26;64.08;99386.75;6072132;23;20101;-85
2021/07/27 06:17:44;;;;;;;39.10;27.92;;;;;;;21.24;64.52;99386.06;6072290;23;20022;-85
2021/07/27 06:20:11;;;;;;;38.78;28.38;;;;;;;21.30;63.93;99390.78;6072278;23;20331;-85
2021/07/27 06:26:18;;;;;;;37.15;25.40;;;;;;;21.35;64.03;99391.09;6097293;23;20406;-85
2021/07/27 06:28:56;;;;;;;41.13;28.73;;;;;;;21.35;64.52;99396.44;6071885;23;20018;-85
2021/07/27 06:31:24;;;;;;;38.25;27.27;;;;;;;21.43;64.07;99396.47;6072074;23;20058;-85
2021/07/27 06:33:50;;;;;;;39.47;28.88;;;;;;;21.46;63.87;99398.78;6071688;23;20026;-85
2021/07/27 06:36:17;;;;;;;35.15;26.02;;;;;;;21.51;64.04;99402.78;6072276;23;20093;-85
2021/07/27 06:38:46;;;;;;;38.78;27.48;;;;;;;21.55;64.25;99413.00;6071923;23;20062;-85
2021/07/27 06:41:13;;;;;;;34.22;26.20;;;;;;;21.62;64.23;99418.53;6072332;23;20101;-85
2021/07/27 06:43:43;;;;;;;42.83;30.52;;;;;;;21.66;64.00;99411.84;6071546;23;20018;-85
2021/07/27 06:46:10;;;;;;;39.97;29.42;;;;;;;21.74;63.90;99416.38;6071808;23;20404;-85
2021/07/27 06:48:37;;;;;;;36.75;28.40;;;;;;;21.81;63.76;99420.06;6071884;23;20105;-85
2021/07/27 06:51:41;;;;;;;42.22;30.63;;;;;;;21.82;63.75;99419.03;6072014;23;20106;-85
2021/07/27 06:54:11;;;;;;;41.35;30.10;;;;;;;21.91;63.36;99421.72;6072071;23;20110;-85
2021/07/27 06:56:54;;;;;;;43.58;32.33;;;;;;;21.87;63.56;99416.69;6071598;23;20025;-85
2021/07/27 06:59:23;;;;;;;;;;;;;;;21.91;62.88;99411.84;6072302;23;20023;-85
2021/07/27 07:02:24;;;;;;;43.20;29.77;;;;;;;21.94;62.99;99416.03;6071921;23;19924;-85
2021/07/27 07:04:50;;;;;;;44.75;29.73;;;;;;;21.98;62.94;99403.97;6071548;23;20031;-86
2021/07/27 07:07:18;;;;;;;45.47;30.88;;;;;;;21.98;63.03;99404.78;6071781;23;20061;-85
2021/07/27 07:09:56;;;;;;;43.50;30.92;;;;;;;21.98;63.51;99412.00;6071410;23;20046;-85
2021/07/27 07:12:26;;;;;;;46.78;29.42;;;;;;;22.05;63.31;99409.47;6072229;23;20057;-85
2021/07/27 07:14:57;;;;;;;41.92;30.70;;;;;;;22.10;63.88;99415.16;6071614;23;20101;-85
2021/07/27 07:17:25;;;;;;;39.65;30.33;;;;;;;22.17;63.39;99410.78;6071925;23;20028;-86
2021/07/27 07:20:06;;;;;;;39.53;30.73;;;;;;;22.20;63.32;99415.78;6073008;23;20064;-86
2021/07/27 07:22:33;;;;;;;39.28;27.77;;;;;;;22.34;63.31;99413.38;6073970;23;20473;-86
2021/07/27 07:25:00;;;;;;;38.83;30.05;;;;;;;22.39;62.45;99408.38;6073409;23;20022;-86
2021/07/27 07:27:28;;;;;;;38.83;29.33;;;;;;;22.43;62.46;99406.97;6073253;23;20097;-85
2021/07/27 07:29:56;;;;;;;37.25;27.70;;;;;;;22.46;61.94;99417.38;6074045;23;20390;-85
2021/07/27 07:32:42;;;;;;;28.88;23.67;;;;;;;22.43;61.10;99415.03;6073370;23;20022;-86
2021/07/27 07:35:10;;;;;;;30.95;24.55;;;;;;;22.49;61.32;99417.03;6049433;23;20022;-86
2021/07/27 07:37:48;;;;;;;34.33;26.00;;;;;;;22.47;61.19;99416.34;6098674;23;20026;-86
2021/07/27 07:40:15;;;;;;;34.15;25.27;;;;;;;22.54;61.51;99421.03;6073472;23;20023;-86
2021/07/27 07:45:53;;;;;;;29.58;21.27;;;;;;;22.64;61.00;99421.69;6098902;23;20097;-86
2021/07/27 07:48:30;;;;;;;26.50;21.90;;;;;;;22.66;60.52;99425.03;6073711;23;20032;-86
2021/07/27 07:50:57;;;;;;;25.45;21.75;;;;;;;22.75;60.32;99415.94;6073656;23;20097;-86
2021/07/27 07:57:00;;;;;;;24.65;19.20;;;;;;;22.94;59.91;99413.00;6098146;23;20018;-86
2021/07/27 07:59:27;;;;;;;24.67;18.80;;;;;;;23.03;60.21;99423.47;6073391;23;20089;-86
2021/07/27 08:01:59;;;;;;;22.77;18.40;;;;;;;23.11;59.27;99425.28;6073281;23;20030;-86
2021/07/27 08:04:26;;;;;;;21.27;17.17;;;;;;;23.20;59.52;99426.06;6073121;23;20032;-85
2021/07/27 08:06:53;;;;;;;22.52;16.33;;;;;;;23.28;58.74;99425.16;6073632;23;20559;-85
2021/07/27 08:12:30;;;;;;;19.00;14.32;;;;;;;23.38;57.97;99419.56;6098251;23;20089;-85
2021/07/27 08:15:04;;;;;;;20.33;13.73;;;;;;;23.37;57.82;99418.75;6073089;23;20069;-85
2021/07/27 08:17:31;;;;;;;18.70;14.23;;;;;;;23.43;57.68;99415.34;6072946;23;20102;-85
2021/07/27 08:20:21;;;;;;;20.90;13.98;;;;;;;23.42;57.39;99423.56;6072848;23;20101;-85
2021/07/27 08:22:49;;;;;;;18.77;15.15;;;;;;;23.51;57.22;99419.81;6073403;23;20023;-85
2021/07/27 08:25:34;;;;;;;17.98;14.55;;;;;;;23.50;57.22;99420.81;6073183;23;20777;-85
2021/07/27 08:28:01;;;;;;;20.30;14.25;;;;;;;23.60;57.93;99419.75;6073376;23;20392;-85
2021/07/27 08:30:28;;;;;;;14.43;12.82;;;;;;;23.65;58.15;99414.66;6072883;23;20519;-84
2021/07/27 08:33:03;;;;;;;16.42;12.75;;;;;;;23.68;57.73;99420.50;6073072;23;20514;-87
2021/07/27 08:35:53;;;;;;;16.88;13.75;;;;;;;23.74;56.76;99418.94;6072611;23;20014;-84
2021/07/27 08:38:20;;;;;;;17.63;13.40;;;;;;;23.85;56.84;99420.34;6072682;23;20029;-84
2021/07/27 08:40:48;;;;;;;19.40;13.10;;;;;;;23.90;57.21;99430.56;6072762;23;20097;-84
2021/07/27 08:43:19;;;;;;;16.25;12.48;;;;;;;23.95;55.63;99428.13;6072850;23;20085;-84
2021/07/27 08:45:46;;;;;;;13.77;11.95;;;;;;;24.00;56.11;99433.78;6072499;23;20018;-84
2021/07/27 08:48:21;;;;;;;14.55;11.77;;;;;;;24.03;55.62;99436.13;6074637;23;20030;-84
2021/07/27 08:50:48;;;;;;;15.75;12.98;;;;;;;24.05;55.93;99436.78;6073278;23;20508;-84
2021/07/27 08:53:42;;;;;;;16.20;12.25;;;;;;;24.03;55.29;99441.50;6073095;23;20101;-84
2021/07/27 08:56:09;;;;;;;16.75;11.85;;;;;;;24.12;55.45;99449.53;6072663;23;20018;-84
2021/07/27 08:59:04;;;;;;;13.35;11.45;;;;;;;24.10;55.69;99440.78;6072929;23;20073;-83
2021/07/27 09:01:40;;;;;;;17.40;11.60;;;;;;;24.20;56.43;99433.31;6096689;23;20022;-84
2021/07/27 09:04:11;;;;;;;18.05;12.07;;;;;;;24.22;56.28;99431.25;6072739;23;20022;-84
2021/07/27 09:06:45;;;;;;;14.80;11.70;;;;;;;24.32;56.46;99434.50;6073467;23;20033;-84
2021/07/27 09:09:31;;;;;;;13.80;12.20;;;;;;;24.40;55.65;99438.13;6097759;23;20022;-84
2021/07/27 09:12:00;;;;;;;18.75;12.30;;;;;;;24.55;56.07;99435.41;6072887;23;20117;-84
2021/07/27 09:14:29;;;;;;;14.02;11.95;;;;;;;24.66;55.90;99443.00;6072390;23;20066;-84
2021/07/27 09:17:07;;;;;;;13.93;12.43;;;;;;;24.76;54.13;99440.03;6072815;23;20327;-84
2021/07/27 09:19:47;;;;;;;13.82;12.38;;;;;;;24.90;54.76;99434.84;6072483;23;20027;-84
2021/07/27 09:22:13;;;;;;;15.90;12.40;;;;;;;25.03;54.01;99424.22;6072431;23;20101;-84
2021/07/27 09:24:44;;;;;;;11.85;10.35;;;;;;;25.09;53.88;99433.38;6072311;23;20077;-83
2021/07/27 09:27:13;;;;;;;13.20;11.05;;;;;;;25.17;54.14;99424.34;6072792;23;20053;-84
2021/07/27 09:30:06;;;;;;;14.63;10.82;;;;;;;25.20;55.63;99434.75;6072392;23;20073;-84
2021/07/27 09:32:33;;;;;;;13.45;10.60;;;;;;;25.33;54.58;99428.63;6072428;23;20019;-83
2021/07/27 09:35:07;;;;;;;17.40;10.57;;;;;;;25.40;54.10;99429.53;6072575;23;20026;-84
2021/07/27 09:37:34;;;;;;;11.05;9.90;;;;;;;25.53;54.48;99433.38;6097370;23;20375;-84
2021/07/27 09:40:15;;;;;;;12.30;10.40;;;;;;;25.59;52.65;99425.38;6072221;23;20036;-83
2021/07/27 09:42:42;;;;;;;13.75;10.27;;;;;;;25.75;53.53;99421.56;6072505;23;20057;-83
2021/07/27 09:45:25;;;;;;;11.80;10.52;;;;;;;25.83;52.30;99428.66;6072657;23;20394;-84
2021/07/27 09:47:56;;;;;;;11.60;10.40;;;;;;;25.97;51.53;99423.38;6072541;23;20404;-83
2021/07/27 09:50:25;;;;;;;13.90;9.30;;;;;;;26.07;52.45;99420.31;6072652;23;20504;-83
2021/07/27 09:52:52;;;;;;;12.40;11.10;;;;;;;26.16;51.97;99427.22;6072162;23;20018;-84
2021/07/27 09:55:22;;;;;;;14.35;11.25;;;;;;;26.21;50.96;99426.63;6072038;23;20093;-84
2021/07/27 09:57:49;;;;;;;12.35;10.45;;;;;;;26.24;50.68;99418.97;6072468;23;20105;-84
2021/07/27 10:00:25;;;;;;;14.07;11.07;;;;;;;26.22;50.47;99429.13;6072319;23;20033;-84
2021/07/27 10:02:52;;;;;;;13.18;10.68;;;;;;;26.27;50.51;99429.41;6072229;23;20105;-83
2021/07/27 10:05:24;;;;;;;12.85;10.90;;;;;;;26.26;50.67;99422.34;6072399;23;20062;-83
2021/07/27 10:08:01;;;;;;;14.05;10.88;;;;;;;26.28;51.38;99432.94;6072541;23;20080;-84
2021/07/27 10:10:39;;;;;;;17.33;12.30;;;;;;;26.33;50.30;99435.03;6072356;23;20093;-84
2021/07/27 10:13:21;;;;;;;12.75;11.20;;;;;;;26.33;50.39;99432.34;6072453;23;20421;-83
2021/07/27 10:15:47;;;;;;;12.68;11.38;;;;;;;26.37;50.07;99439.84;6071934;23;20058;-83
2021/07/27 10:18:31;;;;;;;13.93;12.23;;;;;;;26.28;49.96;99432.94;6072460;23;20342;-84
2021/07/27 10:21:20;;;;;;;14.52;12.23;;;;;;;26.27;50.72;99439.34;6072077;23;20026;-83
2021/07/27 10:24:23;;;;;;;13.63;11.23;;;;;;;26.32;50.81;99430.69;6072319;23;20458;-84
2021/07/27 10:26:50;;;;;;;13.23;11.90;;;;;;;26.42;50.46;99431.13;6072107;23;20061;-84
2021/07/27 10:29:31;;;;;;;13.15;11.80;;;;;;;26.46;50.50;99429.69;6072119;23;20472;-83
2021/07/27 10:32:00;;;;;;;13.70;12.18;;;;;;;26.56;50.21;99437.44;6072410;23;20049;-84
2021/07/27 10:34:38;;;;;;;14.10;12.43;;;;;;;26.59;50.27;99437.03;6071923;23;20106;-84
2021/07/27 10:37:13;;;;;;;16.25;12.35;;;;;;;26.67;50.38;99439.56;6071975;23;20462;-84
2021/07/27 10:39:51;;;;;;;16.42;12.35;;;;;;;26.79;48.97;99436.25;6072352;23;20458;-84
2021/07/27 10:42:21;;;;;;;13.70;11.75;;;;;;;26.92;49.75;99436.31;6072090;23;20089;-84
2021/07/27 10:44:49;;;;;;;11.77;10.60;;;;;;;27.09;50.17;99435.16;6071868;23;20093;-83
2021/07/27 10:47:24;;;;;;;12.93;11.52;;;;;;;27.19;48.68;99440.97;6072308;23;20030;-84
2021/07/27 10:50:07;;;;;;;13.52;12.13;;;;;;;27.28;49.02;99433.53;6072006;23;20022;-84
2021/07/27 10:52:43;;;;;;;13.88;11.13;;;;;;;27.38;48.60;99433.94;5986504;23;20414;-84
2021/07/27 10:55:11;;;;;;;15.07;11.52;;;;;;;27.45;48.95;99440.19;5987170;23;20035;-84
2021/07/27 10:58:00;;;;;;;13.50;11.98;;;;;;;27.45;47.91;99431.25;5987531;23;20023;-84
2021/07/27 11:00:31;;;;;;;12.48;11.18;;;;;;;27.48;47.57;99432.69;5987415;23;20103;-84
2021/07/27 11:03:00;;;;;;;13.27;11.05;;;;;;;27.50;47.38;99433.34;5987369;23;20038;-84
2021/07/27 11:05:29;;;;;;;12.70;11.40;;;;;;;27.54;47.10;99426.44;5987482;23;20027;-84
2021/07/27 11:11:23;;;;;;;9.43;8.52;;;;;;;27.69;46.49;99419.00;6075944;23;20065;-84
2021/07/27 11:14:19;;;;;;;9.52;8.52;;;;;;;27.66;46.52;99424.81;6097397;23;20057;-84
2021/07/27 11:16:46;;;;;;;10.50;8.07;;;;;;;27.70;46.30;99420.66;6074044;23;20465;-84
2021/07/27 11:22:42;;;;;;;12.60;8.30;;;;;;;27.68;44.79;99411.09;6098708;23;20101;-84
2021/07/27 11:28:22;;;;;;;8.90;7.72;;;;;;;27.49;44.96;99428.94;6099087;23;20104;-84
2021/07/27 11:31:28;;;;;;;7.47;6.78;;;;;;;27.29;45.59;99436.00;6073552;23;20057;-84
2021/07/27 11:33:55;;;;;;;8.88;7.68;;;;;;;27.23;45.47;99428.72;6073411;23;20038;-84
2021/07/27 11:36:33;;;;;;;9.88;8.23;;;;;;;27.15;45.81;99429.75;6073368;23;20049;-84
2021/07/27 11:39:07;;;;;;;13.27;7.97;;;;;;;27.18;46.20;99426.63;6073413;23;20029;-84
2021/07/27 11:41:34;;;;;;;9.52;8.52;;;;;;;27.21;46.10;99419.16;6073802;23;20105;-84
2021/07/27 11:44:06;;;;;;;8.85;7.95;;;;;;;27.19;45.50;99420.22;6073269;23;20029;-84
2021/07/27 11:46:38;;;;;;;8.97;7.93;;;;;;;27.19;45.59;99417.50;6097331;23;20057;-84
2021/07/27 11:49:29;;;;;;;10.38;8.27;;;;;;;27.11;45.87;99416.84;6073825;23;20030;-84
2021/07/27 11:52:03;;;;;;;9.38;7.55;;;;;;;27.10;45.50;99415.19;6073345;23;20105;-84
2021/07/27 11:54:37;;;;;;;8.65;7.78;;;;;;;27.03;45.34;99407.09;6073571;23;20077;-84
2021/07/27 11:57:04;;;;;;;9.85;8.32;;;;;;;27.02;45.72;99398.13;6073341;23;20105;-84
2021/07/27 11:59:31;;;;;;;8.93;8.02;;;;;;;27.05;46.61;99394.19;6096969;23;20050;-84
2021/07/27 12:02:16;;;;;;;9.80;7.93;;;;;;;27.16;46.72;99396.31;6096979;23;20057;-84
2021/07/27 12:04:43;;;;;;;12.10;8.57;;;;;;;27.37;46.52;99391.75;6072969;23;20026;-84
2021/07/27 12:07:16;;;;;;;8.77;7.85;;;;;;;27.55;46.10;99379.47;6073240;23;20026;-84
2021/07/27 12:09:43;;;;;;;9.55;8.38;;;;;;;27.77;46.43;99382.81;6063565;23;20026;-84
2021/07/27 12:12:10;;;;;;;8.20;7.40;;;;;;;27.97;45.87;99388.16;6073099;23;20102;-84
2021/07/27 12:14:38;;;;;;;8.80;8.00;;;;;;;28.15;44.88;99383.13;6073405;23;20497;-86
2021/07/27 12:17:05;;;;;;;11.02;7.82;;;;;;;28.25;43.86;99380.00;6072812;23;20029;-86
2021/07/27 12:20:05;;;;;;;;;;;;;;;;;;;;;
2021/07/27 12:22:37;;;;;;;11.60;8.00;;;;;;;28.30;43.31;99362.06;6098096;23;20352;-86
2021/07/27 12:25:04;;;;;;;10.23;7.57;;;;;;;28.25;42.95;99363.75;6072635;23;20072;-86
2021/07/27 12:27:32;;;;;;;11.32;7.72;;;;;;;28.19;43.00;99360.03;6072714;23;20077;-86
2021/07/27 12:29:59;;;;;;;8.38;7.35;;;;;;;28.14;43.39;99368.78;6072950;23;20349;-86
2021/07/27 12:32:29;;;;;;;10.07;7.35;;;;;;;28.06;42.81;99385.22;6072686;23;20101;-86
2021/07/27 12:35:08;;;;;;;7.85;6.97;;;;;;;27.99;43.51;99376.31;6074988;23;20018;-86
2021/07/27 12:37:36;;;;;;;8.45;7.55;;;;;;;27.87;43.38;99379.66;6097717;23;20050;-86
2021/07/27 12:40:04;;;;;;;8.70;7.50;;;;;;;27.73;43.05;99370.75;6072875;23;20407;-86
2021/07/27 12:42:31;;;;;;;9.93;8.20;;;;;;;27.62;43.38;99382.22;6097454;23;20097;-85
2021/07/27 12:45:05;;;;;;;9.88;7.65;;;;;;;27.47;43.65;99382.38;6072425;23;20026;-86
2021/07/27 12:47:35;;;;;;;9.07;7.90;;;;;;;27.41;45.14;99375.94;6072590;23;20097;-85
2021/07/27 12:50:07;;;;;;;10.30;8.18;;;;;;;27.43;46.11;99376.56;6073330;23;20023;-87
2021/07/27 12:52:35;;;;;;;10.87;8.07;;;;;;;27.63;48.31;99384.72;6072934;23;20462;-87